Time;durP1;ratioP1;P1;durP2;ratioP2;P2;SDS_P1;SDS_P2;PMS_P1;PMS_P2;Temp;Humidity;BMP_temperature;BMP_pressure;BME280_temperature;BME280_humidity;BME280_pressure;Samples;Min_cycle;Max_cycle;Signal;HPM_P1;HPM_P2
2022/05/07 00:02:11;;;;;;;42.78;26.95;;;10.80;99.90;;;;;;5014707;28;20121;-82
2022/05/07 00:04:37;;;;;;;51.20;27.77;;;10.80;99.90;;;;;;5014406;28;20128;-82
2022/05/07 00:07:07;;;;;;;46.15;27.42;;;10.80;99.90;;;;;;5014599;28;20050;-82
2022/05/07 00:09:33;;;;;;;46.35;27.02;;;10.90;99.90;;;;;;5014254;28;20041;-82
2022/05/07 00:11:59;;;;;;;43.13;26.67;;;10.90;99.90;;;;;;5014339;28;20042;-82
2022/05/07 00:14:26;;;;;;;41.58;27.35;;;11.00;99.90;;;;;;5014369;28;20042;-82
2022/05/07 00:19:36;;;;;;;44.78;27.65;;;11.00;99.90;;;;;;5014159;28;20049;-82
2022/05/07 00:22:02;;;;;;;45.38;28.23;;;11.10;99.90;;;;;;5013053;28;20502;-83
2022/05/07 00:24:27;;;;;;;48.50;26.40;;;11.10;99.90;;;;;;5013732;28;20371;-83
2022/05/07 00:26:53;;;;;;;46.22;28.63;;;11.10;99.90;;;;;;5013873;28;20121;-83
2022/05/07 00:29:18;;;;;;;46.90;27.70;;;11.10;99.90;;;;;;5014162;28;20172;-83
2022/05/07 00:31:44;;;;;;;48.50;29.05;;;11.10;99.90;;;;;;5013965;28;20040;-82
2022/05/07 00:34:10;;;;;;;44.53;27.92;;;11.20;99.90;;;;;;5014059;28;20050;-83
2022/05/07 00:36:36;;;;;;;48.03;28.02;;;11.20;99.90;;;;;;5013719;28;20045;-82
2022/05/07 00:39:02;;;;;;;46.72;27.95;;;11.30;99.90;;;;;;5013742;28;20038;-83
2022/05/07 00:41:27;;;;;;;49.58;27.67;;;11.30;99.90;;;;;;5013825;28;20064;-82
2022/05/07 00:43:53;;;;;;;42.47;26.77;;;11.30;99.90;;;;;;5013760;28;20486;-82
2022/05/07 00:46:25;;;;;;;44.67;25.75;;;11.30;99.90;;;;;;5013640;28;20081;-83
2022/05/07 00:48:52;;;;;;;43.78;24.48;;;11.30;99.90;;;;;;5005317;28;20049;-82
2022/05/07 00:51:34;;;;;;;39.72;27.20;;;11.30;99.90;;;;;;5013541;28;20418;-83
2022/05/07 00:54:08;;;;;;;47.08;28.38;;;11.30;99.90;;;;;;5013649;28;20064;-82
2022/05/07 00:56:34;;;;;;;45.80;27.92;;;11.40;99.90;;;;;;5013412;28;20120;-82
2022/05/07 00:59:00;;;;;;;49.85;29.00;;;11.40;99.90;;;;;;5013461;28;20091;-83
2022/05/07 01:01:26;;;;;;;47.50;29.40;;;11.40;99.90;;;;;;5013094;28;20058;-83
2022/05/07 01:03:53;;;;;;;53.03;28.70;;;11.40;99.90;;;;;;5013454;28;20110;-83
2022/05/07 01:06:18;;;;;;;48.22;29.95;;;11.30;99.90;;;;;;5013198;28;20100;-83
2022/05/07 01:08:46;;;;;;;51.83;31.55;;;11.30;99.90;;;;;;5013663;28;20041;-83
2022/05/07 01:11:14;;;;;;;55.08;30.90;;;11.30;99.90;;;;;;5013120;28;20038;-82
2022/05/07 01:13:40;;;;;;;54.00;31.63;;;11.20;99.90;;;;;;5013599;28;20418;-83
2022/05/07 01:16:06;;;;;;;50.05;31.90;;;11.20;99.90;;;;;;5013131;28;20056;-82
2022/05/07 01:18:32;;;;;;;57.53;32.58;;;11.20;99.90;;;;;;5012886;28;20038;-82
2022/05/07 01:20:58;;;;;;;60.47;33.55;;;11.20;99.90;;;;;;5012974;28;20054;-83
2022/05/07 01:23:26;;;;;;;56.00;33.17;;;11.20;99.90;;;;;;5011588;28;20070;-83
2022/05/07 01:25:57;;;;;;;60.40;36.17;;;11.20;99.90;;;;;;5012558;28;20062;-82
2022/05/07 01:28:23;;;;;;;59.78;35.15;;;11.20;99.90;;;;;;5013268;28;20442;-82
2022/05/07 01:30:48;;;;;;;56.00;31.73;;;11.20;99.90;;;;;;5013549;28;20042;-82
2022/05/07 01:33:14;;;;;;;61.85;35.78;;;11.20;99.90;;;;;;5012594;28;20072;-83
2022/05/07 01:35:39;;;;;;;64.68;34.78;;;11.20;99.90;;;;;;5013330;28;20072;-83
2022/05/07 01:38:05;;;;;;;60.42;36.13;;;11.20;99.90;;;;;;5013688;28;20046;-83
2022/05/07 01:40:31;;;;;;;61.38;36.83;;;11.20;99.90;;;;;;5013570;28;20038;-83
2022/05/07 01:42:56;;;;;;;78.68;38.92;;;11.20;99.90;;;;;;5012199;28;20536;-82
2022/05/07 01:45:22;;;;;;;63.50;36.80;;;11.20;99.90;;;;;;5013451;28;20120;-83
2022/05/07 01:50:32;;;;;;;70.57;36.70;;;11.20;99.90;;;;;;5013499;28;20058;-83
2022/05/07 01:52:57;;;;;;;60.47;37.83;;;11.20;99.90;;;;;;5013206;28;20046;-83
2022/05/07 01:55:23;;;;;;;63.58;37.47;;;11.20;99.90;;;;;;5012945;28;20555;-83
2022/05/07 01:57:49;;;;;;;60.42;34.67;;;11.20;99.90;;;;;;5013262;28;20073;-83
2022/05/07 02:00:14;;;;;;;61.63;33.65;;;11.30;99.90;;;;;;5082214;23;20046;-79
2022/05/07 02:02:40;;;;;;;56.00;33.63;;;11.20;99.90;;;;;;5034628;28;20054;-79
2022/05/07 02:05:06;;;;;;;56.28;34.55;;;11.30;99.90;;;;;;5034714;28;20145;-78
2022/05/07 02:07:31;;;;;;;60.97;34.50;;;11.30;99.90;;;;;;5034692;28;20042;-78
2022/05/07 02:09:57;;;;;;;56.47;35.28;;;11.40;99.90;;;;;;5029495;28;20072;-79
2022/05/07 02:12:22;;;;;;;56.80;34.30;;;11.30;99.90;;;;;;5015985;28;20121;-79
2022/05/07 02:14:48;;;;;;;52.75;32.22;;;11.30;99.90;;;;;;5015142;28;20077;-80
2022/05/07 02:17:13;;;;;;;55.35;33.53;;;11.30;99.90;;;;;;5014600;28;20068;-79
2022/05/07 02:19:39;;;;;;;53.78;32.65;;;11.30;99.90;;;;;;5029945;28;20054;-80
2022/05/07 02:22:05;;;;;;;57.92;34.42;;;11.30;99.90;;;;;;5015027;28;20088;-79
2022/05/07 02:24:30;;;;;;;56.55;34.28;;;11.30;99.90;;;;;;5017548;28;20033;-79
2022/05/07 02:26:56;;;;;;;53.50;33.58;;;11.30;99.90;;;;;;5018425;28;20050;-79
2022/05/07 02:29:21;;;;;;;56.30;34.30;;;11.30;99.90;;;;;;5018549;28;20125;-79
2022/05/07 02:32:06;;;;;;;46.55;31.20;;;11.30;99.90;;;;;;5017615;28;20096;-80
2022/05/07 02:34:33;;;;;;;57.22;33.03;;;11.30;99.90;;;;;;5017520;28;20092;-80
2022/05/07 02:36:59;;;;;;;55.88;34.85;;;11.30;99.90;;;;;;5019638;28;20516;-81
2022/05/07 02:39:25;;;;;;;60.03;34.42;;;11.30;99.90;;;;;;5017441;28;20562;-80
2022/05/07 02:44:36;;;;;;;51.65;33.45;;;11.30;99.90;;;;;;5016753;28;20045;-78
2022/05/07 02:47:01;;;;;;;49.13;32.78;;;11.30;99.90;;;;;;5029668;28;20033;-82
2022/05/07 02:49:27;;;;;;;54.72;32.85;;;11.30;99.90;;;;;;5039637;28;20037;-82
2022/05/07 02:51:52;;;;;;;50.97;32.88;;;11.30;99.90;;;;;;5040635;28;20060;-82
2022/05/07 02:54:18;;;;;;;51.75;32.33;;;11.30;99.90;;;;;;5040389;28;20025;-83
2022/05/07 02:56:43;;;;;;;49.15;31.80;;;11.30;99.90;;;;;;5040330;28;20032;-80
2022/05/07 02:59:09;;;;;;;53.40;32.75;;;11.30;99.90;;;;;;5039780;28;20042;-80
2022/05/07 03:01:35;;;;;;;44.92;31.40;;;11.30;99.90;;;;;;5038836;28;20058;-80
2022/05/07 03:04:00;;;;;;;52.80;31.25;;;11.30;99.90;;;;;;5033125;28;20455;-79
2022/05/07 03:06:26;;;;;;;48.45;31.33;;;11.30;99.90;;;;;;5017486;28;20528;-81
2022/05/07 03:08:52;;;;;;;47.75;30.67;;;11.30;99.90;;;;;;5032035;28;20512;-79
2022/05/07 03:11:18;;;;;;;49.00;31.73;;;11.20;99.90;;;;;;5015510;28;20121;-78
2022/05/07 03:13:43;;;;;;;45.72;30.40;;;11.20;99.90;;;;;;5016974;28;20125;-81
2022/05/07 03:16:09;;;;;;;48.08;29.27;;;11.20;99.90;;;;;;5015037;28;20409;-79
2022/05/07 03:18:35;;;;;;;49.67;30.95;;;11.20;99.90;;;;;;5016002;28;20145;-79
2022/05/07 03:21:02;;;;;;;49.17;31.73;;;11.30;99.90;;;;;;5031558;28;20052;-80
2022/05/07 03:23:27;;;;;;;50.58;31.95;;;11.20;99.90;;;;;;5016126;28;20498;-81
2022/05/07 03:25:53;;;;;;;49.33;30.52;;;11.20;99.90;;;;;;5016231;28;20096;-79
2022/05/07 03:28:19;;;;;;;51.60;31.83;;;11.10;99.90;;;;;;5016150;28;20107;-80
2022/05/07 03:30:44;;;;;;;47.25;30.20;;;11.10;99.90;;;;;;5015951;28;20494;-79
2022/05/07 03:33:10;;;;;;;46.47;30.00;;;11.00;99.90;;;;;;5016378;28;20405;-80
2022/05/07 03:35:36;;;;;;;44.90;31.02;;;11.00;99.90;;;;;;5015702;28;20157;-80
2022/05/07 03:38:01;;;;;;;48.13;31.90;;;11.00;99.90;;;;;;5015518;28;20057;-79
2022/05/07 03:40:27;;;;;;;49.17;29.52;;;11.00;99.90;;;;;;5015083;28;20034;-80
2022/05/07 03:42:53;;;;;;;45.25;29.80;;;10.90;99.90;;;;;;5015160;28;20042;-80
2022/05/07 03:45:20;;;;;;;45.85;29.55;;;10.90;99.90;;;;;;5015258;28;20046;-78
2022/05/07 03:47:45;;;;;;;42.28;29.70;;;10.90;99.90;;;;;;5015070;28;20120;-79
2022/05/07 03:50:12;;;;;;;48.35;30.52;;;10.90;99.90;;;;;;5014868;28;20149;-80
2022/05/07 03:55:22;;;;;;;45.03;31.08;;;10.80;99.90;;;;;;5015333;28;20076;-80
2022/05/07 03:57:48;;;;;;;46.67;31.48;;;10.80;99.90;;;;;;5014974;28;20498;-80
2022/05/07 04:00:14;;;;;;;49.45;31.67;;;10.80;99.90;;;;;;5029973;28;20081;-79
2022/05/07 04:02:40;;;;;;;46.75;30.77;;;10.80;99.90;;;;;;5014546;28;20108;-78
2022/05/07 04:05:05;;;;;;;46.15;30.42;;;10.80;99.90;;;;;;5014738;28;20491;-80
2022/05/07 04:07:31;;;;;;;48.45;31.30;;;10.80;99.90;;;;;;5014739;28;20052;-80
2022/05/07 04:09:56;;;;;;;49.28;30.08;;;10.90;99.90;;;;;;5014976;28;20093;-80
2022/05/07 04:12:22;;;;;;;43.13;29.20;;;10.90;99.90;;;;;;5014981;28;20042;-79
2022/05/07 04:14:48;;;;;;;48.45;30.83;;;11.00;99.90;;;;;;5014671;28;20049;-80
2022/05/07 04:17:14;;;;;;;51.22;32.28;;;11.00;99.90;;;;;;5029880;28;20038;-79
2022/05/07 04:19:39;;;;;;;45.78;31.35;;;11.00;99.90;;;;;;5030019;28;20046;-79
2022/05/07 04:22:05;;;;;;;48.53;30.75;;;11.00;99.90;;;;;;5015134;28;20080;-80
2022/05/07 04:24:33;;;;;;;48.92;31.13;;;11.90;99.90;;;;;;5029787;28;20052;-80
2022/05/07 04:26:59;;;;;;;48.65;31.35;;;11.10;99.90;;;;;;5029649;28;20124;-79
2022/05/07 04:29:25;;;;;;;46.00;30.55;;;11.20;99.90;;;;;;5013028;28;20049;-81
2022/05/07 04:31:50;;;;;;;47.60;31.48;;;11.20;99.90;;;;;;5014235;28;20097;-80
2022/05/07 04:34:16;;;;;;;43.33;29.63;;;11.20;99.90;;;;;;5014219;28;20049;-80
2022/05/07 04:36:42;;;;;;;50.50;31.17;;;11.30;99.90;;;;;;5014191;28;20048;-80
2022/05/07 04:39:08;;;;;;;44.30;30.90;;;11.40;99.90;;;;;;5014330;28;20049;-80
2022/05/07 04:41:33;;;;;;;43.47;28.48;;;11.40;99.90;;;;;;5013409;28;20121;-79
2022/05/07 04:44:01;;;;;;;42.42;29.60;;;11.40;99.90;;;;;;5013847;28;20045;-79
2022/05/07 04:46:27;;;;;;;40.95;29.77;;;11.50;99.90;;;;;;5013187;28;20038;-79
2022/05/07 04:48:52;;;;;;;46.58;30.20;;;11.50;99.90;;;;;;5013719;28;20050;-79
2022/05/07 04:51:18;;;;;;;49.40;30.25;;;11.60;99.90;;;;;;5028578;28;20048;-80
2022/05/07 04:53:44;;;;;;;40.30;28.77;;;11.60;99.90;;;;;;5014301;28;20045;-79
2022/05/07 04:56:10;;;;;;;46.95;31.27;;;11.60;99.90;;;;;;5014099;28;20054;-78
2022/05/07 04:58:36;;;;;;;38.72;28.35;;;11.70;99.90;;;;;;5029244;28;20124;-78
2022/05/07 05:01:01;;;;;;;43.92;29.02;;;11.70;99.90;;;;;;5013305;28;20072;-79
2022/05/07 05:03:27;;;;;;;41.78;29.50;;;11.80;99.90;;;;;;5014400;28;20439;-79
2022/05/07 05:05:53;;;;;;;43.78;29.65;;;11.80;99.90;;;;;;5014220;28;20037;-80
2022/05/07 05:08:18;;;;;;;38.92;27.80;;;11.80;99.90;;;;;;5017850;28;20034;-79
2022/05/07 05:10:44;;;;;;;39.60;27.92;;;11.80;99.90;;;;;;5029971;28;20068;-80
2022/05/07 05:13:09;;;;;;;44.25;28.70;;;11.80;99.90;;;;;;5033678;28;20617;-80
2022/05/07 05:15:35;;;;;;;42.28;28.83;;;11.80;99.90;;;;;;5033889;28;20037;-79
2022/05/07 05:18:01;;;;;;;46.75;30.35;;;11.80;99.90;;;;;;5032842;28;20041;-78
2022/05/07 05:20:26;;;;;;;41.90;27.83;;;11.80;99.90;;;;;;5033759;28;20098;-78
2022/05/07 05:22:52;;;;;;;43.03;29.52;;;11.80;99.90;;;;;;5033844;28;20049;-79
2022/05/07 05:25:20;;;;;;;43.85;30.65;;;11.80;99.90;;;;;;5030251;28;20046;-79
2022/05/07 05:27:46;;;;;;;39.45;30.30;;;11.90;99.90;;;;;;5014723;28;20049;-80
2022/05/07 05:30:12;;;;;;;42.60;31.10;;;12.00;99.90;;;;;;5014146;28;20069;-79
2022/05/07 05:32:38;;;;;;;38.85;28.25;;;12.00;99.90;;;;;;5014619;28;20038;-79
2022/05/07 05:35:04;;;;;;;42.38;28.45;;;12.10;99.90;;;;;;5014610;28;20056;-78
2022/05/07 05:37:32;;;;;;;48.05;30.10;;;12.20;99.90;;;;;;5014467;28;20042;-79
2022/05/07 05:39:58;;;;;;;42.90;29.98;;;12.30;99.90;;;;;;5012407;28;20038;-80
2022/05/07 05:42:24;;;;;;;37.15;26.95;;;12.40;99.90;;;;;;5028450;28;20054;-79
2022/05/07 05:44:50;;;;;;;39.25;28.10;;;12.50;99.90;;;;;;5013443;28;20160;-80
2022/05/07 05:47:15;;;;;;;37.33;27.35;;;12.60;99.90;;;;;;5012516;28;20038;-79
2022/05/07 05:49:41;;;;;;;37.78;25.33;;;12.70;99.90;;;;;;5013213;28;20073;-78
2022/05/07 05:52:08;;;;;;;39.47;26.80;;;12.80;99.90;;;;;;5027964;28;20046;-80
2022/05/07 05:54:36;;;;;;;31.75;25.27;;;12.90;99.90;;;;;;5013262;28;20054;-80
2022/05/07 05:57:02;;;;;;;34.88;24.48;;;13.10;99.90;;;;;;5014802;28;20053;-80
2022/05/07 05:59:28;;;;;;;32.92;24.50;;;13.30;99.90;;;;;;5019028;28;20046;-79
2022/05/07 06:01:54;;;;;;;28.63;22.70;;;13.50;99.90;;;;;;5019710;28;20054;-80
2022/05/07 06:04:20;;;;;;;32.40;22.30;;;13.60;99.90;;;;;;5020264;28;20068;-80
2022/05/07 06:06:45;;;;;;;29.77;22.95;;;13.80;99.90;;;;;;5021748;28;20105;-78
2022/05/07 06:09:11;;;;;;;33.33;21.98;;;13.90;99.90;;;;;;5033170;28;20044;-82
2022/05/07 06:11:37;;;;;;;30.33;22.13;;;14.00;99.90;;;;;;5041204;28;20045;-82
2022/05/07 06:14:02;;;;;;;26.80;19.73;;;14.20;99.90;;;;;;5040739;28;20049;-81
2022/05/07 06:16:29;;;;;;;31.42;21.27;;;14.30;99.90;;;;;;5040199;28;20089;-81
2022/05/07 06:18:55;;;;;;;26.65;19.08;;;14.30;99.90;;;;;;5038909;28;20106;-79
2022/05/07 06:21:20;;;;;;;26.42;19.95;;;14.30;99.90;;;;;;5038939;28;20042;-79
2022/05/07 06:23:46;;;;;;;25.80;19.17;;;14.40;99.90;;;;;;5038798;28;20106;-81
2022/05/07 06:28:55;;;;;;;26.70;19.50;;;14.50;99.90;;;;;;5015646;28;20050;-81
2022/05/07 06:31:21;;;;;;;27.67;18.58;;;14.60;99.90;;;;;;5031637;28;20038;-80
2022/05/07 06:33:46;;;;;;;26.77;19.50;;;14.80;99.90;;;;;;5017252;28;20050;-79
2022/05/07 06:36:12;;;;;;;24.02;18.95;;;15.30;99.90;;;;;;5015469;28;20100;-79
2022/05/07 06:38:38;;;;;;;26.35;19.85;;;15.20;99.90;;;;;;5013744;28;20052;-79
2022/05/07 06:41:05;;;;;;;25.20;18.77;;;15.30;99.90;;;;;;5028856;28;20096;-79
2022/05/07 06:43:32;;;;;;;26.75;21.10;;;15.40;99.90;;;;;;5014222;28;20609;-79
2022/05/07 06:45:58;;;;;;;24.92;18.95;;;15.50;99.90;;;;;;5006855;28;20041;-81
2022/05/07 06:48:24;;;;;;;27.45;19.15;;;15.50;99.90;;;;;;5006780;28;20553;-79
2022/05/07 06:50:54;;;;;;;30.85;20.85;;;15.50;99.90;;;;;;5010999;28;20048;-80
2022/05/07 06:53:20;;;;;;;27.80;19.98;;;15.40;99.90;;;;;;5000751;28;20042;-80
2022/05/07 06:55:55;;;;;;;23.38;19.00;;;15.40;99.90;;;;;;5007431;28;20608;-78
2022/05/07 06:58:26;;;;;;;26.38;19.10;;;15.40;99.90;;;;;;5007052;28;20058;-80
2022/05/07 07:00:52;;;;;;;24.65;19.38;;;15.60;99.90;;;;;;5009639;28;20518;-80
2022/05/07 07:03:18;;;;;;;28.58;18.63;;;16.00;99.90;;;;;;4999893;28;20525;-80
2022/05/07 07:05:44;;;;;;;24.00;16.60;;;16.40;99.90;;;;;;5006835;28;20402;-79
2022/05/07 07:08:11;;;;;;;24.17;18.90;;;17.00;99.90;;;;;;4999247;28;20385;-78
2022/05/07 07:10:37;;;;;;;24.90;17.83;;;17.40;99.90;;;;;;5004854;28;20042;-80
2022/05/07 07:13:04;;;;;;;22.80;17.45;;;17.60;99.90;;;;;;5006593;28;20045;-80
2022/05/07 07:15:30;;;;;;;21.70;17.67;;;17.70;99.90;;;;;;4997875;28;20121;-79
2022/05/07 07:17:55;;;;;;;25.52;17.45;;;17.90;99.90;;;;;;5004789;28;20126;-80
2022/05/07 07:20:21;;;;;;;24.88;17.35;;;18.40;99.90;;;;;;5013656;28;20314;-79
2022/05/07 07:22:46;;;;;;;24.40;16.83;;;18.70;99.90;;;;;;5013561;28;20041;-79
2022/05/07 07:25:12;;;;;;;21.60;16.35;;;18.90;99.90;;;;;;5013154;28;20103;-81
2022/05/07 07:27:38;;;;;;;21.50;17.63;;;19.00;99.90;;;;;;5012538;28;20042;-79
2022/05/07 07:30:04;;;;;;;25.40;16.00;;;19.30;99.90;;;;;;5013263;28;20053;-79
2022/05/07 07:32:29;;;;;;;23.73;15.95;;;19.50;99.90;;;;;;5013000;28;20072;-80
2022/05/07 07:34:55;;;;;;;23.17;15.60;;;19.60;99.90;;;;;;5013423;28;20050;-79
2022/05/07 07:37:21;;;;;;;22.75;15.60;;;19.60;99.90;;;;;;5027544;28;20052;-79
2022/05/07 07:39:46;;;;;;;24.08;15.95;;;19.80;99.90;;;;;;5013036;28;20103;-80
2022/05/07 07:42:12;;;;;;;23.27;15.20;;;19.80;98.30;;;;;;5013377;28;20050;-79
2022/05/07 07:44:37;;;;;;;22.98;16.70;;;19.70;96.70;;;;;;5012476;28;20050;-79
2022/05/07 07:49:47;;;;;;;20.98;15.15;;;19.60;92.60;;;;;;5012552;28;20060;-79
2022/05/07 07:52:19;;;;;;;19.10;15.63;;;19.30;94.20;;;;;;5012853;28;20132;-80
2022/05/07 07:54:45;;;;;;;22.48;15.23;;;19.20;93.20;;;;;;5012852;28;20498;-80
2022/05/07 07:57:10;;;;;;;20.65;15.50;;;18.80;96.10;;;;;;5013111;28;20045;-80
2022/05/07 07:59:36;;;;;;;23.52;16.67;;;18.70;98.10;;;;;;5024668;28;20189;-79
2022/05/07 08:02:02;;;;;;;22.13;15.07;;;18.50;99.10;;;;;;4993034;28;20061;-78
2022/05/07 08:04:27;;;;;;;21.50;16.70;;;18.50;96.90;;;;;;4997154;28;20061;-78
2022/05/07 08:12:22;;;;;;;21.77;17.35;;;18.30;97.70;;;;;;5028787;28;20041;-79
2022/05/07 08:14:47;;;;;;;23.38;17.52;;;18.40;97.70;;;;;;5028329;28;20045;-78
2022/05/07 08:17:15;;;;;;;28.52;17.70;;;18.20;99.70;;;;;;5019569;28;20096;-79
2022/05/07 08:19:41;;;;;;;25.75;18.50;;;18.30;99.90;;;;;;5011768;28;20510;-79
2022/05/07 08:22:14;;;;;;;23.30;17.20;;;18.60;98.90;;;;;;5026134;28;20069;-80
2022/05/07 08:24:40;;;;;;;21.20;15.68;;;18.70;96.70;;;;;;5010038;28;20056;-77
2022/05/07 08:27:06;;;;;;;71.32;18.77;;;19.30;95.30;;;;;;5011892;28;20049;-78
2022/05/07 08:29:32;;;;;;;25.45;16.70;;;19.20;92.00;;;;;;5011076;28;20038;-79
2022/05/07 08:31:58;;;;;;;22.98;17.00;;;19.10;93.20;;;;;;5011152;28;20038;-79
2022/05/07 08:34:23;;;;;;;20.80;16.50;;;18.90;96.70;;;;;;5011252;28;20474;-81
2022/05/07 08:36:49;;;;;;;22.67;17.02;;;19.10;96.10;;;;;;5010806;28;20038;-77
2022/05/07 08:39:14;;;;;;;36.72;18.65;;;19.50;95.20;;;;;;5010613;28;20042;-79
2022/05/07 08:41:40;;;;;;;24.80;17.88;;;19.70;94.10;;;;;;5011522;28;20046;-80
2022/05/07 08:44:08;;;;;;;25.88;18.58;;;19.50;91.50;;;;;;5012415;28;20038;-80
2022/05/07 08:46:34;;;;;;;27.67;19.83;;;20.10;94.20;;;;;;5011308;28;20096;-79
2022/05/07 08:48:59;;;;;;;23.58;18.02;;;19.20;93.40;;;;;;5011992;28;20050;-79
2022/05/07 08:51:25;;;;;;;21.35;17.05;;;19.70;93.70;;;;;;5010719;28;20049;-79
2022/05/07 08:53:53;;;;;;;25.42;18.10;;;20.10;91.10;;;;;;5011052;28;20077;-79
2022/05/07 08:56:19;;;;;;;20.88;17.55;;;19.70;88.90;;;;;;5026304;28;20046;-79
2022/05/07 08:58:52;;;;;;;27.02;18.10;;;19.60;87.80;;;;;;5010401;28;20046;-78
2022/05/07 09:01:19;;;;;;;28.17;18.83;;;19.50;86.30;;;;;;5010238;28;20066;-78
2022/05/07 09:03:46;;;;;;;21.17;16.65;;;19.10;87.60;;;;;;5011148;28;20045;-80
2022/05/07 09:06:23;;;;;;;24.63;17.30;;;19.10;88.60;;;;;;5009177;28;20053;-79
2022/05/07 09:08:49;;;;;;;26.75;18.10;;;19.00;89.50;;;;;;5009657;28;20049;-78
2022/05/07 09:11:16;;;;;;;24.40;18.17;;;19.20;91.30;;;;;;5002471;28;20043;-79
2022/05/07 09:13:45;;;;;;;27.27;17.70;;;18.70;92.00;;;;;;4990010;28;20379;-79
2022/05/07 09:16:11;;;;;;;23.13;18.27;;;18.90;92.30;;;;;;5007061;28;20114;-78
2022/05/07 09:18:37;;;;;;;29.00;19.23;;;18.60;93.80;;;;;;5010475;28;20124;-79
2022/05/07 09:24:18;;;;;;;25.23;18.08;;;18.60;92.40;;;;;;5005838;28;20038;-78
2022/05/07 09:26:44;;;;;;;22.35;16.90;;;18.40;94.50;;;;;;5027299;28;20116;-79
2022/05/07 09:29:14;;;;;;;22.05;17.30;;;18.80;93.80;;;;;;5011414;28;20100;-78
2022/05/07 09:31:44;;;;;;;23.20;17.65;;;18.80;90.60;;;;;;5010716;28;20049;-78
2022/05/07 09:37:20;;;;;;;23.98;16.95;;;18.90;91.40;;;;;;5009325;28;20382;-78
2022/05/07 09:39:52;;;;;;;24.20;17.27;;;18.70;89.80;;;;;;4994061;28;20105;-79
2022/05/07 09:42:22;;;;;;;26.92;17.30;;;18.70;90.80;;;;;;5011985;28;20038;-78
2022/05/07 09:44:49;;;;;;;22.88;17.00;;;18.70;90.90;;;;;;5010978;28;20084;-76
2022/05/07 09:47:15;;;;;;;23.60;16.52;;;18.80;89.30;;;;;;5015311;28;20054;-78
2022/05/07 09:52:31;;;;;;;18.95;15.10;;;19.20;84.40;;;;;;5014917;28;20046;-80
2022/05/07 09:57:41;;;;;;;26.30;16.08;;;19.90;73.80;;;;;;5017341;28;20046;-79
2022/05/07 10:00:19;;;;;;;22.75;15.13;;;20.40;70.20;;;;;;5033831;28;20030;-79
2022/05/07 10:03:11;;;;;;;17.70;13.90;;;20.60;64.60;;;;;;5034564;28;20033;-79
2022/05/07 10:05:49;;;;;;;21.13;13.25;;;20.80;52.30;;;;;;5049627;28;20064;-80
2022/05/07 10:08:43;;;;;;;18.20;11.25;;;20.80;49.40;;;;;;5012872;28;20038;-78
2022/05/07 10:11:12;;;;;;;20.30;12.88;;;20.50;46.10;;;;;;4992126;28;20507;-78
2022/05/07 10:13:38;;;;;;;19.73;14.13;;;21.10;46.80;;;;;;4992281;28;20522;-79
2022/05/07 10:16:04;;;;;;;24.95;15.68;;;21.20;49.10;;;;;;5000755;28;20050;-78
2022/05/07 10:18:44;;;;;;;23.73;17.25;;;21.50;53.90;;;;;;4997804;28;20049;-78
2022/05/07 10:21:14;;;;;;;15.90;11.93;;;22.30;34.20;;;;;;4998132;28;20042;-78
2022/05/07 10:23:52;;;;;;;26.58;17.70;;;21.40;35.80;;;;;;5006791;28;20133;-77
2022/05/07 10:26:18;;;;;;;25.23;18.17;;;21.20;53.80;;;;;;5007401;28;20050;-77
2022/05/07 10:28:45;;;;;;;26.80;20.70;;;20.90;58.60;;;;;;5008119;28;20049;-77
2022/05/07 10:31:25;;;;;;;28.02;19.65;;;20.60;70.60;;;;;;5009498;28;20154;-78
2022/05/07 10:33:51;;;;;;;33.78;23.38;;;20.40;71.20;;;;;;5009967;28;20053;-79
2022/05/07 10:36:18;;;;;;;32.83;23.85;;;20.20;83.40;;;;;;5010689;28;20061;-78
2022/05/07 10:38:46;;;;;;;41.70;25.55;;;20.20;89.10;;;;;;5010846;28;20092;-77
2022/05/07 10:41:15;;;;;;;34.00;25.83;;;19.90;91.30;;;;;;5013167;28;20518;-78
2022/05/07 10:43:42;;;;;;;36.17;26.45;;;19.80;92.10;;;;;;5014480;28;20136;-78
2022/05/07 10:46:14;;;;;;;41.75;27.52;;;19.80;93.00;;;;;;5016790;28;20042;-79
2022/05/07 10:48:56;;;;;;;38.45;25.38;;;20.00;92.70;;;;;;5017250;28;20123;-78
2022/05/07 10:51:33;;;;;;;45.47;25.00;;;19.60;93.30;;;;;;5017241;28;20053;-78
2022/05/07 10:54:01;;;;;;;37.03;25.10;;;19.80;93.80;;;;;;5016673;28;20049;-80
2022/05/07 10:56:28;;;;;;;37.92;25.00;;;20.00;93.40;;;;;;5033141;28;20061;-79
2022/05/07 10:58:57;;;;;;;36.78;25.42;;;19.90;92.80;;;;;;5022952;28;20108;-79
2022/05/07 11:01:24;;;;;;;36.40;26.55;;;20.00;92.80;;;;;;5029612;28;20061;-78
2022/05/07 11:04:04;;;;;;;37.70;25.98;;;20.70;90.80;;;;;;5030411;28;20509;-79
2022/05/07 11:06:40;;;;;;;40.03;25.27;;;21.40;79.60;;;;;;5034663;28;20081;-78
2022/05/07 11:09:06;;;;;;;38.80;25.27;;;21.30;82.20;;;;;;5034622;28;20046;-79
2022/05/07 11:11:49;;;;;;;34.38;23.55;;;21.30;76.70;;;;;;5029811;28;20038;-79
2022/05/07 11:14:32;;;;;;;33.03;21.35;;;21.60;75.10;;;;;;5017434;28;20121;-78
2022/05/07 11:16:59;;;;;;;33.45;23.42;;;21.80;58.20;;;;;;5017228;28;20092;-78
2022/05/07 11:19:33;;;;;;;30.88;22.58;;;22.30;62.60;;;;;;5017037;28;20246;-78
2022/05/07 11:22:00;;;;;;;31.25;21.35;;;22.30;57.20;;;;;;5031886;28;20104;-79
2022/05/07 11:24:26;;;;;;;32.33;22.38;;;22.40;53.70;;;;;;5015568;28;20044;-78
2022/05/07 11:27:05;;;;;;;26.33;20.42;;;22.10;49.70;;;;;;5015529;28;20038;-79
2022/05/07 11:29:33;;;;;;;29.48;20.30;;;22.30;42.60;;;;;;5014937;28;20042;-80
2022/05/07 11:32:04;;;;;;;27.95;19.40;;;22.30;39.60;;;;;;5015501;28;20042;-79
2022/05/07 11:34:34;;;;;;;26.02;18.65;;;21.70;45.20;;;;;;5015520;28;20054;-77
2022/05/07 11:37:39;;;;;;;27.25;20.70;;;21.40;50.40;;;;;;5015206;28;20518;-79
2022/05/07 11:40:08;;;;;;;29.45;20.20;;;21.10;62.80;;;;;;5003912;28;20057;-79
2022/05/07 11:42:46;;;;;;;28.50;20.98;;;20.50;65.20;;;;;;5030429;28;20038;-78
2022/05/07 11:45:31;;;;;;;32.03;21.83;;;20.40;67.20;;;;;;5014867;28;20046;-78
2022/05/07 11:48:04;;;;;;;30.83;21.75;;;20.10;74.30;;;;;;5015057;28;20056;-78
2022/05/07 11:50:40;;;;;;;33.78;23.08;;;20.50;73.00;;;;;;5014916;28;20057;-79
2022/05/07 11:53:13;;;;;;;29.25;21.70;;;20.40;71.90;;;;;;5013957;28;20556;-79
2022/05/07 11:55:39;;;;;;;29.90;20.92;;;20.60;72.50;;;;;;5014514;28;20072;-77
2022/05/07 11:58:12;;;;;;;34.38;22.02;;;20.60;71.20;;;;;;5015174;28;20045;-79
2022/05/07 12:00:44;;;;;;;33.42;22.33;;;20.10;73.70;;;;;;5015118;28;20517;-79
2022/05/07 12:03:10;;;;;;;34.80;22.83;;;19.70;83.40;;;;;;5015635;28;20053;-78
2022/05/07 12:05:43;;;;;;;159.50;32.85;;;19.40;90.00;;;;;;5015246;28;20076;-79
2022/05/07 12:08:17;;;;;;;34.67;21.70;;;18.70;96.60;;;;;;5014919;28;20042;-80
2022/05/07 12:10:44;;;;;;;36.72;23.48;;;18.50;98.70;;;;;;5014936;28;20411;-80
2022/05/07 12:13:10;;;;;;;43.55;23.00;;;19.00;99.90;;;;;;5014083;28;20552;-79
2022/05/07 12:18:24;;;;;;;26.02;15.90;;;19.20;95.10;;;;;;5015707;28;20049;-79
2022/05/07 12:20:50;;;;;;;23.10;15.05;;;19.60;92.70;;;;;;5015616;28;20414;-80
2022/05/07 12:31:29;;;;;;;22.85;14.93;;;20.10;87.40;;;;;;5014627;28;20046;-78
2022/05/07 12:33:55;;;;;;;23.63;14.75;;;19.90;89.30;;;;;;5014556;28;20050;-79
2022/05/07 12:36:20;;;;;;;20.83;15.13;;;19.70;92.20;;;;;;5014627;28;20390;-77
2022/05/07 12:38:46;;;;;;;22.83;14.93;;;20.20;90.70;;;;;;5029402;28;20383;-78
2022/05/07 12:41:14;;;;;;;24.38;16.38;;;21.00;83.90;;;;;;5014715;28;20102;-78
2022/05/07 12:43:40;;;;;;;24.98;16.10;;;20.80;77.70;;;;;;5014508;28;20123;-79
2022/05/07 12:46:05;;;;;;;18.23;12.38;;;20.80;81.60;;;;;;5014378;28;20069;-79
2022/05/07 12:48:32;;;;;;;16.42;11.15;;;21.10;79.80;;;;;;5014496;28;20050;-78
2022/05/07 12:50:57;;;;;;;15.18;9.07;;;20.80;78.60;;;;;;5014731;28;20072;-78
2022/05/07 12:53:23;;;;;;;19.92;9.00;;;20.70;81.80;;;;;;5014843;28;20555;-78
2022/05/07 12:55:49;;;;;;;11.73;7.90;;;20.70;85.90;;;;;;5013987;28;20052;-78
2022/05/07 12:58:15;;;;;;;19.10;9.38;;;19.80;89.90;;;;;;5014307;28;20045;-78
2022/05/07 13:00:41;;;;;;;15.90;9.20;;;19.40;91.80;;;;;;5013461;28;20072;-78
2022/05/07 13:03:07;;;;;;;15.02;9.45;;;19.10;95.00;;;;;;5014292;28;20453;-79
2022/05/07 13:05:35;;;;;;;19.13;9.52;;;18.90;96.90;;;;;;5013800;28;20037;-78
2022/05/07 13:08:01;;;;;;;15.82;8.73;;;18.80;96.10;;;;;;5013435;28;20041;-79
2022/05/07 13:10:28;;;;;;;14.18;7.97;;;19.10;94.50;;;;;;5013623;28;20046;-77
2022/05/07 13:12:53;;;;;;;14.65;8.77;;;19.00;94.90;;;;;;5013338;28;20048;-77
2022/05/07 13:15:19;;;;;;;14.10;8.90;;;19.30;96.30;;;;;;5013352;28;20046;-77